Time;durP1;ratioP1;P1;durP2;ratioP2;P2;SDS_P1;SDS_P2;PMS_P1;PMS_P2;Temp;Humidity;BMP_temperature;BMP_pressure;BME280_temperature;BME280_humidity;BME280_pressure;Samples;Min_cycle;Max_cycle;Signal;HPM_P1;HPM_P2
2023/09/03 00:02:02;;;;;;;;;;;;;;;;;;5074194;28;19944;-73
2023/09/03 00:04:27;;;;;;;;;;;;;;;;;;5051403;28;19991;-72
2023/09/03 00:06:53;;;;;;;;;;;;;;;;;;5056710;28;19999;-73
2023/09/03 00:09:19;;;;;;;;;;;;;;;;;;5074216;28;19910;-73
2023/09/03 00:11:45;;;;;;;;;;;;;;;;;;5074010;28;19904;-73
2023/09/03 00:14:11;;;;;;;;;;;;;;;;;;5055824;28;20429;-73
2023/09/03 00:16:37;;;;;;;;;;;;;;;;;;5055728;28;19904;-73
2023/09/03 00:19:03;;;;;;;;;;;;;;;;;;5074586;28;19948;-72
2023/09/03 00:21:29;;;;;;;;;;;;;;;;;;5072423;28;19912;-71
2023/09/03 00:23:55;;;;;;;;;;;;;;;;;;5073584;28;19904;-71
2023/09/03 00:26:24;;;;;;;;;;;;;;;;;;5069208;28;20037;-71
2023/09/03 00:28:50;;;;;;;;;;;;;;;;;;5073348;28;19916;-72
2023/09/03 00:31:16;;;;;;;;;;;;;;;;;;5074376;28;19908;-71
2023/09/03 00:33:42;;;;;;;;;;;;;;;;;;5073377;28;19912;-73
2023/09/03 00:36:09;;;;;;;;;;;;;;;;;;5073500;28;19905;-72
2023/09/03 00:38:35;;;;;;;;;;;;;;;;;;5055052;28;20287;-72
2023/09/03 00:41:04;;;;;;;;;;;;;;;;;;5073909;28;19904;-73
2023/09/03 00:43:30;;;;;;;;;;;;;;;;;;5073009;28;19954;-73
2023/09/03 00:45:56;;;;;;;;;;;;;;;;;;5073325;28;20364;-73
2023/09/03 00:48:23;;;;;;;;;;;;;;;;;;5073371;28;19911;-72
2023/09/03 00:50:49;;;;;;;;;;;;;;;;;;5073331;28;19939;-73
2023/09/03 00:53:15;;;;;;;;;;;;;;;;;;5074184;28;20002;-73
2023/09/03 00:55:41;;;;;;;;;;;;;;;;;;5073332;28;19904;-73
2023/09/03 00:58:06;;;;;;;;;;;;;;;;;;5079557;28;19914;-73
2023/09/03 01:00:33;;;;;;;;;;;;;;;;;;5071553;28;19994;-72
2023/09/03 01:03:00;;;;;;;;;;;;;;;;;;5055992;28;19908;-72
2023/09/03 01:05:26;;;;;;;;;;;;;;;;;;5080606;28;19995;-73
2023/09/03 01:07:52;;;;;;;;;;;;;;;;;;5054728;28;20366;-73
2023/09/03 01:10:18;;;;;;;;;;;;;;;;;;5079996;28;19916;-73
2023/09/03 01:12:44;;;;;;;;;;;;;;;;;;5079394;28;19908;-73
2023/09/03 01:15:10;;;;;;;;;;;;;;;;;;5080939;28;20324;-72
2023/09/03 01:17:37;;;;;;;;;;;;;;;;;;5072353;28;19913;-73
2023/09/03 01:20:06;;;;;;;;;;;;;;;;;;5072752;28;19969;-72
2023/09/03 01:22:32;;;;;;;;;;;;;;;;;;5072800;28;20367;-72
2023/09/03 01:24:58;;;;;;;;;;;;;;;;;;5069434;28;19959;-72
2023/09/03 01:27:24;;;;;;;;;;;;;;;;;;5072591;28;19905;-73
2023/09/03 01:29:50;;;;;;;;;;;;;;;;;;5072651;28;20253;-73
2023/09/03 01:32:16;;;;;;;;;;;;;;;;;;5072690;28;19912;-73
2023/09/03 01:34:42;;;;;;;;;;;;;;;;;;5072791;28;20286;-73
2023/09/03 01:37:08;;;;;;;;;;;;;;;;;;5073753;28;19987;-72
2023/09/03 01:39:33;;;;;;;;;;;;;;;;;;5072478;28;19911;-73
2023/09/03 01:41:59;;;;;;;;;;;;;;;;;;5072323;28;19915;-72
2023/09/03 01:44:25;;;;;;;;;;;;;;;;;;5072822;28;19904;-72
2023/09/03 01:46:51;;;;;;;;;;;;;;;;;;5072794;28;20295;-71
2023/09/03 01:49:17;;;;;;;;;;;;;;;;;;5073078;28;19908;-72
2023/09/03 01:51:43;;;;;;;;;;;;;;;;;;5054511;28;19908;-71
2023/09/03 01:54:09;;;;;;;;;;;;;;;;;;5075553;28;19931;-72
2023/09/03 01:56:35;;;;;;;;;;;;;;;;;;5058302;28;19912;-72
2023/09/03 01:59:01;;;;;;;;;;;;;;;;;;5077049;28;19958;-72
2023/09/03 02:01:30;;;;;;;;;;;;;;;;;;5076252;28;20332;-72
2023/09/03 02:03:56;;;;;;;;;;;;;;;;;;5058262;28;19904;-72
2023/09/03 02:06:22;;;;;;;;;;;;;;;;;;5076057;28;19927;-72
2023/09/03 02:08:48;;;;;;;;;;;;;;;;;;5075969;28;19904;-71
2023/09/03 02:11:13;;;;;;;;;;;;;;;;;;5077165;28;19923;-72
2023/09/03 02:13:40;;;;;;;;;;;;;;;;;;5076125;28;19943;-72
2023/09/03 02:16:06;;;;;;;;;;;;;;;;;;5075820;28;19927;-72
2023/09/03 02:18:32;;;;;;;;;;;;;;;;;;5075725;28;19913;-72
2023/09/03 02:20:58;;;;;;;;;;;;;;;;;;5077167;28;19905;-72
2023/09/03 02:23:23;;;;;;;;;;;;;;;;;;5082945;28;19908;-72
2023/09/03 02:25:49;;;;;;;;;;;;;;;;;;5071561;28;19973;-72
2023/09/03 02:28:15;;;;;;;;;;;;;;;;;;5075515;28;19904;-72
2023/09/03 02:30:41;;;;;;;;;;;;;;;;;;5075856;28;19908;-72
2023/09/03 02:33:07;;;;;;;;;;;;;;;;;;5076974;28;19949;-72
2023/09/03 02:35:33;;;;;;;;;;;;;;;;;;5075478;28;20017;-72
2023/09/03 02:37:59;;;;;;;;;;;;;;;;;;5075185;28;19909;-72
2023/09/03 02:40:25;;;;;;;;;;;;;;;;;;5075874;28;19904;-72
2023/09/03 02:42:52;;;;;;;;;;;;;;;;;;5076081;28;20001;-72
2023/09/03 02:45:18;;;;;;;;;;;;;;;;;;5076198;28;19912;-72
2023/09/03 02:47:44;;;;;;;;;;;;;;;;;;5073483;28;19909;-73
2023/09/03 02:50:10;;;;;;;;;;;;;;;;;;5075486;28;20280;-72
2023/09/03 02:52:36;;;;;;;;;;;;;;;;;;5075554;28;19905;-72
2023/09/03 02:55:02;;;;;;;;;;;;;;;;;;5076932;28;19908;-73
2023/09/03 02:57:28;;;;;;;;;;;;;;;;;;5057923;28;20275;-73
2023/09/03 02:59:53;;;;;;;;;;;;;;;;;;5074063;28;19908;-72
2023/09/03 03:02:20;;;;;;;;;;;;;;;;;;5073960;28;19912;-72
2023/09/03 03:04:46;;;;;;;;;;;;;;;;;;5074644;28;19928;-71
2023/09/03 03:07:12;;;;;;;;;;;;;;;;;;5076298;28;19904;-71
2023/09/03 03:09:38;;;;;;;;;;;;;;;;;;5074250;28;19909;-71
2023/09/03 03:12:04;;;;;;;;;;;;;;;;;;5076589;28;19912;-72
2023/09/03 03:14:30;;;;;;;;;;;;;;;;;;5058156;28;19927;-72
2023/09/03 03:16:56;;;;;;;;;;;;;;;;;;5090379;22;20286;-73
2023/09/03 03:19:21;;;;;;;;;;;;;;;;;;5030394;28;19913;-74
2023/09/03 03:21:47;;;;;;;;;;;;;;;;;;5034537;28;19920;-74
2023/09/03 03:24:13;;;;;;;;;;;;;;;;;;5033755;28;20284;-75
2023/09/03 03:26:39;;;;;;;;;;;;;;;;;;5034863;28;20387;-75
2023/09/03 03:29:07;;;;;;;;;;;;;;;;;;5019653;28;19905;-75
2023/09/03 03:31:34;;;;;;;;;;;;;;;;;;5035135;28;19928;-75
2023/09/03 03:34:00;;;;;;;;;;;;;;;;;;5035193;28;19905;-75
2023/09/03 03:36:26;;;;;;;;;;;;;;;;;;5035178;28;19905;-75
2023/09/03 03:38:52;;;;;;;;;;;;;;;;;;5033689;28;19935;-75
2023/09/03 03:41:17;;;;;;;;;;;;;;;;;;5017499;28;19904;-75
2023/09/03 03:43:43;;;;;;;;;;;;;;;;;;5016525;28;20361;-75
2023/09/03 03:46:09;;;;;;;;;;;;;;;;;;5034845;28;19912;-75
2023/09/03 03:48:35;;;;;;;;;;;;;;;;;;5034540;28;19995;-75
2023/09/03 03:51:01;;;;;;;;;;;;;;;;;;5035684;28;19922;-74
2023/09/03 03:53:27;;;;;;;;;;;;;;;;;;5034526;28;19905;-75
2023/09/03 03:55:53;;;;;;;;;;;;;;;;;;5034404;28;19912;-75
2023/09/03 03:58:19;;;;;;;;;;;;;;;;;;5016271;28;19912;-75
2023/09/03 04:00:45;;;;;;;;;;;;;;;;;;5016697;28;19909;-75
2023/09/03 04:03:11;;;;;;;;;;;;;;;;;;5035772;28;19962;-75
2023/09/03 04:05:36;;;;;;;;;;;;;;;;;;5034181;28;19970;-75
2023/09/03 04:08:02;;;;;;;;;;;;;;;;;;5033940;28;19928;-75
2023/09/03 04:10:28;;;;;;;;;;;;;;;;;;5042957;28;19912;-75
2023/09/03 04:12:56;;;;;;;;;;;;;;;;;;5045589;28;19913;-75
2023/09/03 04:15:21;;;;;;;;;;;;;;;;;;5045416;28;19966;-75
2023/09/03 04:17:47;;;;;;;;;;;;;;;;;;5044614;28;19917;-75
2023/09/03 04:20:13;;;;;;;;;;;;;;;;;;5033705;28;19905;-75
2023/09/03 04:22:39;;;;;;;;;;;;;;;;;;5016193;28;19996;-75
2023/09/03 04:25:05;;;;;;;;;;;;;;;;;;5035209;28;19905;-75
2023/09/03 04:27:31;;;;;;;;;;;;;;;;;;5033729;28;19913;-75
2023/09/03 04:29:57;;;;;;;;;;;;;;;;;;5033839;28;19913;-75
2023/09/03 04:32:23;;;;;;;;;;;;;;;;;;5016372;28;20284;-75
2023/09/03 04:34:49;;;;;;;;;;;;;;;;;;5033918;28;19905;-75
2023/09/03 04:37:15;;;;;;;;;;;;;;;;;;5034590;28;19954;-75
2023/09/03 04:39:41;;;;;;;;;;;;;;;;;;5033329;28;20377;-75
2023/09/03 04:42:07;;;;;;;;;;;;;;;;;;5015720;28;19916;-75
2023/09/03 04:44:33;;;;;;;;;;;;;;;;;;5033520;28;19905;-75
2023/09/03 04:46:59;;;;;;;;;;;;;;;;;;5034613;28;20399;-75
2023/09/03 04:49:25;;;;;;;;;;;;;;;;;;5033558;28;19909;-75
2023/09/03 04:51:51;;;;;;;;;;;;;;;;;;5015986;28;20011;-75
2023/09/03 04:54:17;;;;;;;;;;;;;;;;;;5033161;28;19909;-75
2023/09/03 04:56:43;;;;;;;;;;;;;;;;;;5033452;28;19905;-75
2023/09/03 04:59:10;;;;;;;;;;;;;;;;;;5016807;28;19913;-75
2023/09/03 05:01:35;;;;;;;;;;;;;;;;;;5015605;28;19978;-75
2023/09/03 05:04:03;;;;;;;;;;;;;;;;;;5039910;28;20383;-75
2023/09/03 05:06:29;;;;;;;;;;;;;;;;;;5033485;28;19951;-75
2023/09/03 05:08:55;;;;;;;;;;;;;;;;;;5034093;28;19909;-75
2023/09/03 05:11:21;;;;;;;;;;;;;;;;;;5033501;28;19912;-75
2023/09/03 05:13:47;;;;;;;;;;;;;;;;;;5033282;28;19909;-75
2023/09/03 05:16:13;;;;;;;;;;;;;;;;;;5033195;28;19905;-75
2023/09/03 05:18:39;;;;;;;;;;;;;;;;;;5032593;28;19975;-75
2023/09/03 05:21:04;;;;;;;;;;;;;;;;;;5034692;28;19909;-75
2023/09/03 05:23:30;;;;;;;;;;;;;;;;;;5015293;28;20399;-75
2023/09/03 05:25:56;;;;;;;;;;;;;;;;;;5032806;28;19909;-75
2023/09/03 05:28:22;;;;;;;;;;;;;;;;;;5036567;28;19905;-75
2023/09/03 05:30:48;;;;;;;;;;;;;;;;;;5039562;28;20342;-75
2023/09/03 05:33:15;;;;;;;;;;;;;;;;;;5040845;28;19904;-75
2023/09/03 05:35:41;;;;;;;;;;;;;;;;;;5027752;28;19912;-75
2023/09/03 05:38:07;;;;;;;;;;;;;;;;;;5041445;28;19905;-75
2023/09/03 05:40:33;;;;;;;;;;;;;;;;;;5039175;28;19967;-75
2023/09/03 05:42:59;;;;;;;;;;;;;;;;;;5038378;28;19959;-75
2023/09/03 05:45:24;;;;;;;;;;;;;;;;;;5039502;28;19909;-73
2023/09/03 05:47:50;;;;;;;;;;;;;;;;;;5039013;28;20333;-75
2023/09/03 05:50:16;;;;;;;;;;;;;;;;;;5039429;28;19905;-74
2023/09/03 05:52:42;;;;;;;;;;;;;;;;;;5039501;28;19967;-73
2023/09/03 05:55:08;;;;;;;;;;;;;;;;;;5021301;28;19916;-74
2023/09/03 05:57:34;;;;;;;;;;;;;;;;;;5039073;28;20505;-73
2023/09/03 06:00:00;;;;;;;;;;;;;;;;;;5039323;28;19909;-73
2023/09/03 06:02:26;;;;;;;;;;;;;;;;;;5039292;28;20055;-74
2023/09/03 06:04:52;;;;;;;;;;;;;;;;;;5022179;28;19912;-73
2023/09/03 06:07:18;;;;;;;;;;;;;;;;;;5022445;28;19952;-74
2023/09/03 06:09:45;;;;;;;;;;;;;;;;;;5039536;28;19932;-73
2023/09/03 06:12:10;;;;;;;;;;;;;;;;;;5039984;28;19955;-74
2023/09/03 06:14:36;;;;;;;;;;;;;;;;;;5039774;28;19909;-74
2023/09/03 06:17:04;;;;;;;;;;;;;;;;;;5023325;28;20311;-74
2023/09/03 06:19:30;;;;;;;;;;;;;;;;;;5040001;28;19972;-74
2023/09/03 06:21:55;;;;;;;;;;;;;;;;;;5046318;28;20479;-74
2023/09/03 06:24:21;;;;;;;;;;;;;;;;;;5040864;28;19911;-75
2023/09/03 06:26:47;;;;;;;;;;;;;;;;;;5026307;28;20302;-74
2023/09/03 06:29:13;;;;;;;;;;;;;;;;;;5056428;28;19904;-75
2023/09/03 06:31:39;;;;;;;;;;;;;;;;;;5046598;28;19916;-74
2023/09/03 06:34:05;;;;;;;;;;;;;;;;;;5056683;28;19916;-75
2023/09/03 06:36:31;;;;;;;;;;;;;;;;;;5058084;28;19950;-75
2023/09/03 06:38:57;;;;;;;;;;;;;;;;;;5057189;28;19904;-74
2023/09/03 06:41:23;;;;;;;;;;;;;;;;;;5048434;28;19909;-75
2023/09/03 06:43:49;;;;;;;;;;;;;;;;;;5046548;28;19928;-75
2023/09/03 06:46:15;;;;;;;;;;;;;;;;;;5044329;28;19908;-75
2023/09/03 06:48:43;;;;;;;;;;;;;;;;;;5037295;28;19905;-75
2023/09/03 06:51:09;;;;;;;;;;;;;;;;;;5056650;28;19916;-76
2023/09/03 06:53:35;;;;;;;;;;;;;;;;;;5046776;28;19909;-76
2023/09/03 06:56:01;;;;;;;;;;;;;;;;;;5036512;28;20292;-76
2023/09/03 06:58:27;;;;;;;;;;;;;;;;;;5035686;28;19905;-76
2023/09/03 07:00:53;;;;;;;;;;;;;;;;;;5034991;28;19916;-77
2023/09/03 07:03:19;;;;;;;;;;;;;;;;;;5046650;28;19909;-77
2023/09/03 07:05:45;;;;;;;;;;;;;;;;;;5044825;28;19909;-75
2023/09/03 07:08:11;;;;;;;;;;;;;;;;;;5033843;28;19913;-76
2023/09/03 07:10:36;;;;;;;;;;;;;;;;;;5033273;28;20289;-76
2023/09/03 07:13:02;;;;;;;;;;;;;;;;;;5035565;28;19905;-76
2023/09/03 07:15:28;;;;;;;;;;;;;;;;;;5036565;28;19909;-77
2023/09/03 07:17:54;;;;;;;;;;;;;;;;;;5021645;28;19939;-76
2023/09/03 07:20:20;;;;;;;;;;;;;;;;;;5035557;28;19924;-75
2023/09/03 07:22:46;;;;;;;;;;;;;;;;;;5035471;28;19909;-74
2023/09/03 07:25:12;;;;;;;;;;;;;;;;;;5034753;28;20465;-75
2023/09/03 07:27:39;;;;;;;;;;;;;;;;;;5034459;28;19905;-73
2023/09/03 07:30:04;;;;;;;;;;;;;;;;;;5034469;28;19913;-72
2023/09/03 07:32:31;;;;;;;;;;;;;;;;;;5031816;28;19910;-72
2023/09/03 07:34:56;;;;;;;;;;;;;;;;;;5034588;28;19911;-73
2023/09/03 07:37:22;;;;;;;;;;;;;;;;;;5037528;28;19916;-73
2023/09/03 07:39:48;;;;;;;;;;;;;;;;;;5019762;28;20372;-73
2023/09/03 07:42:14;;;;;;;;;;;;;;;;;;5017923;28;19909;-72
2023/09/03 07:44:40;;;;;;;;;;;;;;;;;;5034121;28;19944;-73
2023/09/03 07:47:06;;;;;;;;;;;;;;;;;;5036096;28;19905;-72
2023/09/03 07:49:32;;;;;;;;;;;;;;;;;;5017211;28;19959;-73
2023/09/03 07:51:58;;;;;;;;;;;;;;;;;;5016958;28;19905;-73
2023/09/03 07:54:24;;;;;;;;;;;;;;;;;;5036234;28;20392;-72
2023/09/03 07:56:50;;;;;;;;;;;;;;;;;;5035043;28;19905;-72
2023/09/03 07:59:16;;;;;;;;;;;;;;;;;;5036320;28;19916;-73
2023/09/03 08:01:42;;;;;;;;;;;;;;;;;;5017428;28;19940;-73
2023/09/03 08:04:08;;;;;;;;;;;;;;;;;;5035681;28;19948;-73
2023/09/03 08:06:36;;;;;;;;;;;;;;;;;;5044642;28;20006;-75
2023/09/03 08:09:03;;;;;;;;;;;;;;;;;;5028183;28;20393;-77
2023/09/03 08:11:32;;;;;;;;;;;;;;;;;;5027774;28;19916;-77
2023/09/03 08:14:01;;;;;;;;;;;;;;;;;;5030165;28;19913;-77
2023/09/03 08:16:29;;;;;;;;;;;;;;;;;;5033470;28;19905;-77
2023/09/03 08:19:12;;;;;;;;;;;;;;;;;;5038971;22;19921;-78
2023/09/03 08:21:48;;;;;;;;;;;;;;;;;;5022638;28;19905;-77
2023/09/03 08:24:31;;;;;;;;;;;;;;;;;;5018412;28;19905;-77
2023/09/03 08:27:06;;;;;;;;;;;;;;;;;;5024952;28;19905;-77
2023/09/03 08:29:38;;;;;;;;;;;;;;;;;;5038572;28;19912;-78
2023/09/03 08:32:11;;;;;;;;;;;;;;;;;;5026710;28;19912;-78
2023/09/03 08:34:39;;;;;;;;;;;;;;;;;;5041379;28;19905;-77
2023/09/03 08:39:42;;;;;;;;;;;;;;;;;;4988911;28;19921;-77
2023/09/03 08:42:08;;;;;;;;;;;;;;;;;;4988623;28;20052;-78
2023/09/03 08:44:37;;;;;;;;;;;;;;;;;;4999565;28;19913;-78
2023/09/03 08:49:46;;;;;;;;;;;;;;;;;;3102320;26;19924;-78
2023/09/03 08:52:12;;;;;;;;;;;;;;;;;;5051864;28;20302;-74
2023/09/03 08:54:38;;;;;;;;;;;;;;;;;;5049639;28;19908;-73
2023/09/03 08:57:05;;;;;;;;;;;;;;;;;;5054976;28;19904;-74
2023/09/03 08:59:31;;;;;;;;;;;;;;;;;;5053216;28;19904;-72
2023/09/03 09:01:57;;;;;;;;;;;;;;;;;;5062723;28;20011;-70
2023/09/03 09:04:23;;;;;;;;;;;;;;;;;;5068388;28;19909;-70
2023/09/03 09:06:49;;;;;;;;;;;;;;;;;;5054651;28;19908;-70
2023/09/03 09:09:15;;;;;;;;;;;;;;;;;;5072088;28;19901;-70
2023/09/03 09:11:41;;;;;;;;;;;;;;;;;;5070486;28;19908;-70
2023/09/03 09:14:07;;;;;;;;;;;;;;;;;;5072155;28;19904;-69
2023/09/03 09:16:33;;;;;;;;;;;;;;;;;;5071867;28;20352;-70
2023/09/03 09:19:02;;;;;;;;;;;;;;;;;;5054259;22;19925;-70
2023/09/03 09:21:30;;;;;;;;;;;;;;;;;;5031403;28;19911;-70
2023/09/03 09:23:56;;;;;;;;;;;;;;;;;;5030486;28;20454;-69
2023/09/03 09:26:23;;;;;;;;;;;;;;;;;;5031976;28;19909;-70
2023/09/03 09:28:49;;;;;;;;;;;;;;;;;;5031706;28;19909;-71
2023/09/03 09:31:15;;;;;;;;;;;;;;;;;;5031958;28;19905;-70
2023/09/03 09:33:41;;;;;;;;;;;;;;;;;;5030457;28;19905;-71
2023/09/03 09:36:06;;;;;;;;;;;;;;;;;;5032141;28;19909;-71
2023/09/03 09:38:34;;;;;;;;;;;;;;;;;;5031517;28;19923;-71
2023/09/03 09:41:00;;;;;;;;;;;;;;;;;;5031848;28;20429;-71
2023/09/03 09:43:26;;;;;;;;;;;;;;;;;;5031575;28;19917;-71
2023/09/03 09:45:52;;;;;;;;;;;;;;;;;;5031833;28;19990;-71
2023/09/03 09:48:17;;;;;;;;;;;;;;;;;;5017907;28;20000;-71
2023/09/03 09:50:44;;;;;;;;;;;;;;;;;;5011931;28;19913;-71
2023/09/03 09:53:10;;;;;;;;;;;;;;;;;;5011822;28;19906;-71
2023/09/03 09:55:36;;;;;;;;;;;;;;;;;;5011903;28;19999;-70
2023/09/03 09:58:02;;;;;;;;;;;;;;;;;;5011554;28;19906;-71
2023/09/03 10:00:27;;;;;;;;;;;;;;;;;;5011698;28;19917;-72
2023/09/03 10:02:53;;;;;;;;;;;;;;;;;;5011685;28;19910;-69
2023/09/03 10:05:19;;;;;;;;;;;;;;;;;;5011689;28;19912;-70
2023/09/03 10:07:45;;;;;;;;;;;;;;;;;;5011661;28;20314;-70
2023/09/03 10:10:11;;;;;;;;;;;;;;;;;;5011944;28;20316;-73
2023/09/03 10:12:37;;;;;;;;;;;;;;;;;;5011912;28;19912;-70
2023/09/03 10:15:03;;;;;;;;;;;;;;;;;;5014565;28;19909;-70
2023/09/03 10:17:29;;;;;;;;;;;;;;;;;;5015200;28;20369;-69
2023/09/03 10:19:55;;;;;;;;;;;;;;;;;;5015549;28;19909;-70
2023/09/03 10:22:23;;;;;;;;;;;;;;;;;;5015521;28;19909;-70
2023/09/03 10:24:49;;;;;;;;;;;;;;;;;;5015225;28;20288;-70
2023/09/03 10:27:14;;;;;;;;;;;;;;;;;;5015138;28;19906;-70
2023/09/03 10:29:40;;;;;;;;;;;;;;;;;;5015047;28;19905;-71
2023/09/03 10:32:06;;;;;;;;;;;;;;;;;;5015055;28;19920;-71
2023/09/03 10:34:34;;;;;;;;;;;;;;;;;;5014765;28;19905;-71
2023/09/03 10:37:03;;;;;;;;;;;;;;;;;;5015099;28;19967;-70
2023/09/03 10:39:29;;;;;;;;;;;;;;;;;;5014891;28;19905;-70
2023/09/03 10:41:54;;;;;;;;;;;;;;;;;;5014943;28;19910;-70
2023/09/03 10:44:20;;;;;;;;;;;;;;;;;;5014818;28;19921;-70
2023/09/03 10:46:46;;;;;;;;;;;;;;;;;;5014649;28;19916;-69
2023/09/03 10:49:12;;;;;;;;;;;;;;;;;;5014504;28;19912;-70
2023/09/03 10:51:40;;;;;;;;;;;;;;;;;;5014947;28;19906;-69
2023/09/03 10:54:05;;;;;;;;;;;;;;;;;;5014715;28;19963;-69
2023/09/03 10:56:31;;;;;;;;;;;;;;;;;;5014780;28;20004;-70
2023/09/03 10:58:57;;;;;;;;;;;;;;;;;;5014285;28;19909;-71
2023/09/03 11:01:24;;;;;;;;;;;;;;;;;;5014624;28;19906;-71
2023/09/03 11:03:50;;;;;;;;;;;;;;;;;;5014570;28;19910;-70
2023/09/03 11:06:17;;;;;;;;;;;;;;;;;;5014582;28;19963;-70
2023/09/03 11:08:43;;;;;;;;;;;;;;;;;;5013707;28;20332;-69
2023/09/03 11:11:11;;;;;;;;;;;;;;;;;;5014551;28;19905;-70
2023/09/03 11:13:37;;;;;;;;;;;;;;;;;;5014541;28;19910;-69
2023/09/03 11:16:03;;;;;;;;;;;;;;;;;;5014451;28;20300;-70
2023/09/03 11:18:30;;;;;;;;;;;;;;;;;;5014032;28;19913;-69
2023/09/03 11:20:56;;;;;;;;;;;;;;;;;;5014332;28;19910;-71
2023/09/03 11:23:22;;;;;;;;;;;;;;;;;;5014533;28;20323;-71
2023/09/03 11:25:48;;;;;;;;;;;;;;;;;;5013562;28;19951;-71
2023/09/03 11:28:14;;;;;;;;;;;;;;;;;;5014091;28;20004;-72
2023/09/03 11:30:40;;;;;;;;;;;;;;;;;;5015255;28;20308;-69
2023/09/03 11:33:08;;;;;;;;;;;;;;;;;;5033846;28;19909;-69
2023/09/03 11:35:34;;;;;;;;;;;;;;;;;;5033795;28;19954;-70
2023/09/03 11:38:00;;;;;;;;;;;;;;;;;;5032095;28;20424;-71
2023/09/03 11:40:29;;;;;;;;;;;;;;;;;;5013478;28;19920;-70
2023/09/03 11:42:55;;;;;;;;;;;;;;;;;;4995994;28;20389;-71
2023/09/03 11:45:21;;;;;;;;;;;;;;;;;;5013545;28;20037;-69
2023/09/03 11:47:49;;;;;;;;;;;;;;;;;;5013261;28;19905;-72
2023/09/03 11:50:15;;;;;;;;;;;;;;;;;;5013758;28;19905;-71
2023/09/03 11:52:41;;;;;;;;;;;;;;;;;;5011993;28;19963;-69
2023/09/03 11:55:07;;;;;;;;;;;;;;;;;;5013455;28;19905;-70
2023/09/03 11:57:33;;;;;;;;;;;;;;;;;;4995643;28;19971;-69
2023/09/03 11:59:59;;;;;;;;;;;;;;;;;;5013399;28;20032;-70
2023/09/03 12:02:25;;;;;;;;;;;;;;;;;;5013261;28;19937;-70
2023/09/03 12:04:51;;;;;;;;;;;;;;;;;;4995578;28;20396;-72
2023/09/03 12:07:17;;;;;;;;;;;;;;;;;;5013336;28;20404;-69
2023/09/03 12:09:43;;;;;;;;;;;;;;;;;;5013175;28;19905;-70
2023/09/03 12:12:09;;;;;;;;;;;;;;;;;;5013333;28;20369;-74
2023/09/03 12:14:35;;;;;;;;;;;;;;;;;;5013158;28;20005;-70
2023/09/03 12:17:01;;;;;;;;;;;;;;;;;;5013092;28;19906;-70
2023/09/03 12:19:26;;;;;;;;;;;;;;;;;;5013047;28;19961;-70
2023/09/03 12:21:54;;;;;;;;;;;;;;;;;;5013678;28;19913;-71
2023/09/03 12:24:21;;;;;;;;;;;;;;;;;;5013626;28;19905;-71
2023/09/03 12:26:47;;;;;;;;;;;;;;;;;;5016115;28;19909;-71
2023/09/03 12:29:12;;;;;;;;;;;;;;;;;;5032288;28;19912;-70
2023/09/03 12:31:39;;;;;;;;;;;;;;;;;;5032787;28;19905;-71
2023/09/03 12:34:05;;;;;;;;;;;;;;;;;;5032910;28;19905;-70
2023/09/03 12:36:31;;;;;;;;;;;;;;;;;;5032856;28;19909;-71
2023/09/03 12:38:57;;;;;;;;;;;;;;;;;;5031659;28;19904;-70
2023/09/03 12:41:23;;;;;;;;;;;;;;;;;;5032734;28;19958;-70
2023/09/03 12:43:49;;;;;;;;;;;;;;;;;;5014600;28;19931;-70
2023/09/03 12:46:15;;;;;;;;;;;;;;;;;;5032395;28;19905;-70
2023/09/03 12:48:41;;;;;;;;;;;;;;;;;;5032290;28;19905;-70
2023/09/03 12:51:09;;;;;;;;;;;;;;;;;;5032403;28;19912;-70
2023/09/03 12:53:35;;;;;;;;;;;;;;;;;;5032397;28;19931;-71
2023/09/03 12:56:01;;;;;;;;;;;;;;;;;;5032562;28;20284;-70
2023/09/03 12:58:27;;;;;;;;;;;;;;;;;;5032139;28;20372;-69
2023/09/03 13:00:53;;;;;;;;;;;;;;;;;;5032365;28;19912;-68
2023/09/03 13:03:19;;;;;;;;;;;;;;;;;;5032189;28;19912;-71
2023/09/03 13:05:45;;;;;;;;;;;;;;;;;;5032341;28;20409;-69
2023/09/03 13:08:11;;;;;;;;;;;;;;;;;;5031804;28;20269;-70
2023/09/03 13:10:37;;;;;;;;;;;;;;;;;;5032136;28;19905;-70
2023/09/03 13:13:03;;;;;;;;;;;;;;;;;;5032009;28;19905;-69
2023/09/03 13:15:28;;;;;;;;;;;;;;;;;;5032022;28;19911;-69
2023/09/03 13:17:54;;;;;;;;;;;;;;;;;;5031633;28;20369;-69
2023/09/03 13:20:20;;;;;;;;;;;;;;;;;;5031932;28;19905;-69
2023/09/03 13:22:46;;;;;;;;;;;;;;;;;;5032028;28;19913;-70
2023/09/03 13:25:12;;;;;;;;;;;;;;;;;;5031956;28;19905;-69
2023/09/03 13:27:38;;;;;;;;;;;;;;;;;;5031605;28;19905;-70
2023/09/03 13:30:04;;;;;;;;;;;;;;;;;;5031898;28;19905;-69
2023/09/03 13:32:31;;;;;;;;;;;;;;;;;;5031953;28;20300;-70
2023/09/03 13:34:57;;;;;;;;;;;;;;;;;;5031953;28;19905;-69
2023/09/03 13:37:23;;;;;;;;;;;;;;;;;;5032075;28;19912;-69
2023/09/03 13:39:49;;;;;;;;;;;;;;;;;;5031882;28;20323;-70
2023/09/03 13:42:15;;;;;;;;;;;;;;;;;;5031682;28;19971;-69
2023/09/03 13:44:40;;;;;;;;;;;;;;;;;;5032033;28;20373;-69
2023/09/03 13:47:06;;;;;;;;;;;;;;;;;;5031604;28;20383;-69
2023/09/03 13:49:32;;;;;;;;;;;;;;;;;;5033672;28;19952;-69
2023/09/03 13:51:58;;;;;;;;;;;;;;;;;;5036146;28;19908;-70
2023/09/03 13:54:24;;;;;;;;;;;;;;;;;;5035820;28;19905;-70
2023/09/03 13:56:50;;;;;;;;;;;;;;;;;;5035773;28;19947;-70
2023/09/03 13:59:16;;;;;;;;;;;;;;;;;;5035663;28;19905;-69
2023/09/03 14:01:42;;;;;;;;;;;;;;;;;;5035516;28;19901;-69
2023/09/03 14:04:08;;;;;;;;;;;;;;;;;;5035800;28;19904;-70
2023/09/03 14:06:38;;;;;;;;;;;;;;;;;;5035679;28;20368;-71
2023/09/03 14:09:04;;;;;;;;;;;;;;;;;;5035080;28;20004;-71
2023/09/03 14:11:30;;;;;;;;;;;;;;;;;;5035270;28;19905;-71
2023/09/03 14:13:56;;;;;;;;;;;;;;;;;;5035513;28;19909;-71
2023/09/03 14:16:23;;;;;;;;;;;;;;;;;;5035772;28;19975;-71
2023/09/03 14:18:49;;;;;;;;;;;;;;;;;;5034892;28;19917;-70
2023/09/03 14:21:15;;;;;;;;;;;;;;;;;;5035328;28;19940;-71
2023/09/03 14:23:41;;;;;;;;;;;;;;;;;;5035433;28;19948;-72
2023/09/03 14:26:07;;;;;;;;;;;;;;;;;;5035210;28;19964;-71
2023/09/03 14:28:33;;;;;;;;;;;;;;;;;;5034871;28;20353;-70
2023/09/03 14:30:59;;;;;;;;;;;;;;;;;;5035036;28;20011;-70
2023/09/03 14:33:25;;;;;;;;;;;;;;;;;;5035166;28;19939;-70
2023/09/03 14:35:51;;;;;;;;;;;;;;;;;;5035286;28;19991;-70
2023/09/03 14:38:17;;;;;;;;;;;;;;;;;;5017146;28;19905;-70
2023/09/03 14:40:43;;;;;;;;;;;;;;;;;;5034978;28;19971;-70
2023/09/03 14:43:08;;;;;;;;;;;;;;;;;;5035040;28;20261;-70
2023/09/03 14:45:34;;;;;;;;;;;;;;;;;;5034914;28;20287;-70
2023/09/03 14:48:00;;;;;;;;;;;;;;;;;;5034747;28;19905;-70
2023/09/03 14:50:26;;;;;;;;;;;;;;;;;;5034646;28;19909;-70
2023/09/03 14:52:52;;;;;;;;;;;;;;;;;;5034542;28;19905;-71
2023/09/03 14:55:18;;;;;;;;;;;;;;;;;;5034504;28;19905;-69
2023/09/03 14:57:44;;;;;;;;;;;;;;;;;;5034445;28;19905;-70
2023/09/03 15:00:10;;;;;;;;;;;;;;;;;;5015914;28;19912;-70
2023/09/03 15:02:36;;;;;;;;;;;;;;;;;;5034400;28;19913;-70
2023/09/03 15:05:02;;;;;;;;;;;;;;;;;;5016578;28;20047;-70
2023/09/03 15:07:28;;;;;;;;;;;;;;;;;;5016232;28;19905;-69
2023/09/03 15:09:54;;;;;;;;;;;;;;;;;;5034104;28;19909;-69
2023/09/03 15:12:19;;;;;;;;;;;;;;;;;;5034197;28;19905;-70
2023/09/03 15:14:45;;;;;;;;;;;;;;;;;;5034188;28;19958;-70
2023/09/03 15:17:11;;;;;;;;;;;;;;;;;;5033895;28;19911;-70
2023/09/03 15:19:37;;;;;;;;;;;;;;;;;;5034445;28;19956;-69
2023/09/03 15:22:03;;;;;;;;;;;;;;;;;;5034039;28;20387;-69
2023/09/03 15:24:29;;;;;;;;;;;;;;;;;;5033972;28;19909;-69
2023/09/03 15:26:55;;;;;;;;;;;;;;;;;;5034040;28;19909;-69
2023/09/03 15:29:21;;;;;;;;;;;;;;;;;;5033735;28;20320;-69
2023/09/03 15:31:47;;;;;;;;;;;;;;;;;;5033785;28;20340;-69
2023/09/03 15:34:13;;;;;;;;;;;;;;;;;;5033719;28;19966;-69
2023/09/03 15:36:39;;;;;;;;;;;;;;;;;;5033717;28;19987;-69
2023/09/03 15:39:05;;;;;;;;;;;;;;;;;;5033297;28;19952;-69
2023/09/03 15:41:31;;;;;;;;;;;;;;;;;;5033826;28;19912;-69
2023/09/03 15:44:00;;;;;;;;;;;;;;;;;;5033631;28;20333;-70
2023/09/03 15:46:26;;;;;;;;;;;;;;;;;;5033657;28;19992;-69
2023/09/03 15:48:55;;;;;;;;;;;;;;;;;;5033622;28;19947;-69
2023/09/03 15:51:21;;;;;;;;;;;;;;;;;;5033624;28;19911;-70
2023/09/03 15:53:47;;;;;;;;;;;;;;;;;;5033270;28;20292;-70
2023/09/03 15:56:12;;;;;;;;;;;;;;;;;;5015580;28;19905;-69
2023/09/03 15:58:38;;;;;;;;;;;;;;;;;;5033078;28;19905;-69
2023/09/03 16:01:05;;;;;;;;;;;;;;;;;;5033307;28;19909;-70
2023/09/03 16:03:31;;;;;;;;;;;;;;;;;;5033052;28;20020;-69
2023/09/03 16:05:57;;;;;;;;;;;;;;;;;;5033148;28;19940;-69
2023/09/03 16:08:23;;;;;;;;;;;;;;;;;;5032873;28;19940;-71
2023/09/03 16:10:49;;;;;;;;;;;;;;;;;;5033087;28;20431;-70
2023/09/03 16:13:15;;;;;;;;;;;;;;;;;;5032784;28;19909;-69
2023/09/03 16:15:41;;;;;;;;;;;;;;;;;;5032831;28;19991;-68
2023/09/03 16:18:07;;;;;;;;;;;;;;;;;;5032541;28;19913;-70
2023/09/03 16:20:33;;;;;;;;;;;;;;;;;;5032860;28;20284;-70
2023/09/03 16:22:59;;;;;;;;;;;;;;;;;;5015131;28;19916;-69
2023/09/03 16:25:25;;;;;;;;;;;;;;;;;;5032824;28;19905;-70
2023/09/03 16:27:51;;;;;;;;;;;;;;;;;;5032498;28;19905;-70
2023/09/03 16:30:17;;;;;;;;;;;;;;;;;;5014886;28;20430;-68
2023/09/03 16:32:43;;;;;;;;;;;;;;;;;;5032588;28;20519;-70
2023/09/03 16:35:09;;;;;;;;;;;;;;;;;;5032500;28;19909;-70
2023/09/03 16:37:35;;;;;;;;;;;;;;;;;;5032407;28;20331;-71
2023/09/03 16:40:04;;;;;;;;;;;;;;;;;;5032253;28;19905;-70
2023/09/03 16:42:30;;;;;;;;;;;;;;;;;;5032740;28;20299;-71
2023/09/03 16:44:57;;;;;;;;;;;;;;;;;;5032670;28;20035;-71